Time;durP1;ratioP1;P1;durP2;ratioP2;P2;SDS_P1;SDS_P2;PMS_P1;PMS_P2;Temp;Humidity;BMP_temperature;BMP_pressure;BME280_temperature;BME280_humidity;BME280_pressure;Samples;Min_cycle;Max_cycle;Signal;HPM_P1;HPM_P2
2023/10/21 00:02:02;;;;;;;20.98;11.00;;;8.80;99.90;;;;;;5043365;28;20049;-82
2023/10/21 00:04:29;;;;;;;19.35;10.85;;;8.80;99.90;;;;;;5048990;28;20406;-81
2023/10/21 00:06:56;;;;;;;21.25;12.50;;;9.30;99.90;;;;;;5054408;28;20041;-82
2023/10/21 00:09:23;;;;;;;21.92;11.93;;;8.90;99.90;;;;;;5050749;28;20084;-82
2023/10/21 00:11:49;;;;;;;23.65;12.43;;;9.10;99.90;;;;;;5051695;28;20033;-81
2023/10/21 00:14:17;;;;;;;23.33;11.90;;;8.90;99.90;;;;;;5051239;28;20046;-82
2023/10/21 00:16:44;;;;;;;21.60;11.18;;;8.90;99.90;;;;;;5041851;28;20522;-82
2023/10/21 00:19:13;;;;;;;21.05;12.45;;;8.90;99.90;;;;;;5037919;28;20037;-81
2023/10/21 00:21:40;;;;;;;20.20;12.02;;;8.90;99.90;;;;;;5050135;28;20049;-81
2023/10/21 00:24:07;;;;;;;25.65;12.93;;;8.90;99.90;;;;;;5050124;28;20045;-82
2023/10/21 00:26:44;;;;;;;22.48;13.07;;;8.90;99.90;;;;;;5040170;28;20381;-82
2023/10/21 00:29:11;;;;;;;24.13;12.57;;;8.90;99.90;;;;;;5066220;28;20637;-82
2023/10/21 00:31:38;;;;;;;24.80;12.50;;;9.00;99.90;;;;;;5050811;28;20107;-82
2023/10/21 00:34:04;;;;;;;26.05;12.90;;;9.00;99.90;;;;;;5046887;28;20781;-82
2023/10/21 00:36:31;;;;;;;27.05;13.48;;;9.00;99.90;;;;;;5043979;28;20042;-82
2023/10/21 00:38:58;;;;;;;23.15;13.40;;;9.10;99.90;;;;;;5045079;28;20034;-81
2023/10/21 00:41:24;;;;;;;23.40;13.73;;;9.50;99.90;;;;;;5041573;28;20048;-82
2023/10/21 00:43:51;;;;;;;22.13;12.63;;;9.00;99.90;;;;;;5043730;28;20037;-82
2023/10/21 00:46:18;;;;;;;32.50;14.32;;;9.00;99.90;;;;;;5045213;28;20033;-82
2023/10/21 00:48:46;;;;;;;25.85;12.98;;;8.90;99.90;;;;;;5067063;28;20124;-82
2023/10/21 00:51:15;;;;;;;28.42;14.60;;;8.90;99.90;;;;;;5037311;28;20088;-82
2023/10/21 00:53:42;;;;;;;25.80;14.40;;;9.00;99.90;;;;;;5049841;28;20087;-81
2023/10/21 00:56:09;;;;;;;23.50;13.63;;;9.40;99.90;;;;;;5045887;28;20406;-82
2023/10/21 00:58:36;;;;;;;30.30;14.70;;;9.50;99.90;;;;;;5040842;28;20922;-82
2023/10/21 01:01:06;;;;;;;29.95;14.98;;;9.00;99.90;;;;;;5047819;28;20077;-81
2023/10/21 01:03:34;;;;;;;24.00;13.55;;;9.40;99.90;;;;;;5049243;28;20099;-82
2023/10/21 01:06:01;;;;;;;27.17;13.70;;;9.00;99.90;;;;;;5053377;28;20116;-81
2023/10/21 01:08:27;;;;;;;25.88;13.68;;;9.00;99.90;;;;;;5040345;28;20108;-81
2023/10/21 01:10:55;;;;;;;24.92;14.02;;;8.90;99.90;;;;;;5053667;28;20139;-82
2023/10/21 01:13:22;;;;;;;26.25;14.13;;;8.90;99.90;;;;;;5049963;28;20041;-82
2023/10/21 01:15:48;;;;;;;30.98;14.95;;;8.90;99.90;;;;;;5042400;28;20853;-82
2023/10/21 01:18:15;;;;;;;32.60;15.25;;;9.00;99.90;;;;;;5045069;28;20411;-81
2023/10/21 01:20:42;;;;;;;28.83;14.63;;;9.00;99.90;;;;;;5048409;28;20041;-82
2023/10/21 01:23:12;;;;;;;27.45;14.15;;;9.00;99.90;;;;;;5052626;28;20045;-82
2023/10/21 01:25:39;;;;;;;29.45;15.07;;;9.10;99.90;;;;;;5053265;28;20037;-80
2023/10/21 01:28:05;;;;;;;29.98;14.88;;;9.00;99.90;;;;;;5043235;28;20033;-80
2023/10/21 01:30:35;;;;;;;27.67;14.65;;;9.20;99.90;;;;;;5062670;28;20044;-80
2023/10/21 01:33:02;;;;;;;34.17;14.38;;;9.00;99.90;;;;;;5060895;28;20483;-80
2023/10/21 01:35:28;;;;;;;44.60;16.42;;;9.00;99.90;;;;;;5053282;28;20047;-80
2023/10/21 01:37:55;;;;;;;39.15;14.27;;;9.40;99.90;;;;;;5052742;28;20068;-80
2023/10/21 01:40:22;;;;;;;44.10;15.45;;;8.90;99.90;;;;;;5050834;28;20099;-80
2023/10/21 01:42:48;;;;;;;34.67;15.52;;;9.70;99.90;;;;;;5033400;28;20048;-80
2023/10/21 01:45:15;;;;;;;54.47;16.77;;;9.10;99.90;;;;;;5033082;28;20049;-80
2023/10/21 01:47:42;;;;;;;39.13;15.40;;;9.40;99.90;;;;;;5033149;28;20091;-80
2023/10/21 01:50:10;;;;;;;47.22;15.68;;;9.10;99.90;;;;;;5068974;28;20068;-80
2023/10/21 01:52:38;;;;;;;46.80;15.60;;;9.20;99.90;;;;;;5039587;28;20045;-80
2023/10/21 01:55:06;;;;;;;60.33;17.67;;;9.60;99.90;;;;;;5052593;28;20491;-81
2023/10/21 01:57:33;;;;;;;55.78;16.65;;;9.20;99.90;;;;;;5052440;28;20083;-80
2023/10/21 02:00:01;;;;;;;57.50;15.90;;;9.20;99.90;;;;;;5052451;28;20085;-80
2023/10/21 02:02:28;;;;;;;55.33;15.13;;;9.20;99.90;;;;;;5057274;28;20045;-80
2023/10/21 02:04:55;;;;;;;59.10;15.32;;;9.30;99.90;;;;;;5037509;28;20030;-80
2023/10/21 02:07:21;;;;;;;60.55;16.38;;;9.20;99.90;;;;;;5049096;28;20052;-80
2023/10/21 02:09:48;;;;;;;46.67;15.20;;;9.70;99.90;;;;;;5048479;28;20033;-80
2023/10/21 02:12:15;;;;;;;59.10;15.68;;;9.30;99.90;;;;;;5029418;28;20124;-80
2023/10/21 02:14:42;;;;;;;51.85;14.65;;;9.90;99.90;;;;;;5042809;28;20052;-80
2023/10/21 02:17:08;;;;;;;79.82;16.50;;;9.20;99.90;;;;;;5052278;28;20041;-80
2023/10/21 02:19:35;;;;;;;54.15;14.52;;;9.30;99.90;;;;;;5036338;28;20041;-80
2023/10/21 02:22:02;;;;;;;79.72;16.70;;;9.30;99.90;;;;;;5050995;28;20037;-80
2023/10/21 02:24:28;;;;;;;49.67;14.43;;;9.30;99.90;;;;;;5036127;28;20037;-80
2023/10/21 02:26:56;;;;;;;58.08;14.70;;;9.30;99.90;;;;;;5037371;28;20128;-80
2023/10/21 02:29:23;;;;;;;47.20;14.02;;;9.30;99.90;;;;;;5049261;28;20191;-80
2023/10/21 02:31:49;;;;;;;84.15;17.05;;;9.40;99.90;;;;;;5036689;28;20141;-80
2023/10/21 02:34:19;;;;;;;50.72;14.77;;;9.30;99.90;;;;;;5065513;28;20515;-80
2023/10/21 02:36:47;;;;;;;53.03;15.25;;;9.30;99.90;;;;;;5049022;28;20414;-80
2023/10/21 02:39:15;;;;;;;49.65;14.45;;;9.40;99.90;;;;;;5045476;28;20049;-80
2023/10/21 02:41:45;;;;;;;63.63;16.02;;;9.40;99.90;;;;;;5046292;28;20054;-80
2023/10/21 02:44:14;;;;;;;42.78;14.73;;;9.50;99.90;;;;;;5043137;28;20040;-80
2023/10/21 02:46:40;;;;;;;40.55;14.38;;;9.90;99.90;;;;;;5038143;28;20037;-80
2023/10/21 02:49:07;;;;;;;64.72;14.90;;;9.40;99.90;;;;;;5062945;28;20037;-80
2023/10/21 02:51:34;;;;;;;64.60;14.65;;;9.40;99.90;;;;;;5069098;28;20052;-80
2023/10/21 02:54:00;;;;;;;71.15;15.32;;;9.60;99.90;;;;;;5043260;28;20470;-80
2023/10/21 02:56:27;;;;;;;75.60;14.98;;;9.40;99.90;;;;;;5037717;28;20049;-80
2023/10/21 02:58:53;;;;;;;78.70;15.07;;;9.80;99.90;;;;;;5051850;28;20526;-80
2023/10/21 03:01:22;;;;;;;52.22;14.30;;;9.40;99.90;;;;;;5045306;28;20800;-80
2023/10/21 03:03:50;;;;;;;43.25;13.65;;;9.40;99.90;;;;;;5038840;28;20462;-80
2023/10/21 03:06:19;;;;;;;48.05;13.65;;;9.40;99.90;;;;;;5045065;28;20107;-80
2023/10/21 03:08:46;;;;;;;40.95;12.95;;;9.40;99.90;;;;;;5052154;28;20037;-80
2023/10/21 03:11:13;;;;;;;55.72;14.40;;;9.70;99.90;;;;;;5031721;28;20041;-80
2023/10/21 03:13:40;;;;;;;42.58;13.88;;;9.40;99.90;;;;;;5045223;28;20104;-80
2023/10/21 03:16:14;;;;;;;51.47;13.75;;;9.60;99.90;;;;;;5045308;28;20491;-80
2023/10/21 03:18:41;;;;;;;109.07;17.58;;;9.50;99.90;;;;;;5047689;28;20476;-80
2023/10/21 03:21:08;;;;;;;39.92;13.48;;;9.50;99.90;;;;;;5051720;28;20120;-80
2023/10/21 03:23:36;;;;;;;77.05;15.27;;;9.40;99.90;;;;;;5046902;28;20582;-80
2023/10/21 03:26:04;;;;;;;54.75;13.82;;;9.60;99.90;;;;;;5039244;28;20033;-81
2023/10/21 03:28:31;;;;;;;47.70;13.60;;;9.50;99.90;;;;;;5046311;28;20614;-80
2023/10/21 03:30:59;;;;;;;53.75;14.15;;;9.50;99.90;;;;;;5031981;28;20152;-80
2023/10/21 03:33:26;;;;;;;55.97;15.45;;;9.50;99.90;;;;;;5039622;28;20525;-80
2023/10/21 03:35:58;;;;;;;40.75;13.23;;;9.40;99.90;;;;;;5043714;28;20038;-80
2023/10/21 03:38:25;;;;;;;41.92;12.90;;;9.50;99.90;;;;;;5038749;28;20518;-80
2023/10/21 03:40:55;;;;;;;46.90;12.73;;;9.80;99.90;;;;;;5057417;28;20042;-80
2023/10/21 03:43:23;;;;;;;53.13;13.63;;;9.50;99.90;;;;;;5044833;28;20112;-80
2023/10/21 03:45:50;;;;;;;66.72;14.43;;;9.50;99.90;;;;;;5051916;28;20037;-80
2023/10/21 03:48:16;;;;;;;42.53;12.93;;;9.50;99.90;;;;;;5039348;28;20056;-80
2023/10/21 03:50:43;;;;;;;52.25;14.23;;;9.50;99.90;;;;;;5039017;28;20551;-80
2023/10/21 03:53:11;;;;;;;33.03;12.40;;;9.50;99.90;;;;;;5052561;28;20045;-80
2023/10/21 03:55:37;;;;;;;29.52;12.30;;;9.50;99.90;;;;;;5059647;28;20454;-80
2023/10/21 03:58:04;;;;;;;31.30;12.50;;;9.50;99.90;;;;;;5066545;28;20042;-80
2023/10/21 04:00:31;;;;;;;29.48;12.65;;;9.40;99.90;;;;;;5050334;28;20503;-80
2023/10/21 04:02:58;;;;;;;29.60;13.45;;;9.50;99.90;;;;;;5058021;28;20045;-80
2023/10/21 04:05:24;;;;;;;27.65;11.75;;;9.90;99.90;;;;;;5035996;28;20071;-80
2023/10/21 04:07:51;;;;;;;22.83;12.15;;;9.50;99.90;;;;;;5046504;28;20092;-80
2023/10/21 04:10:17;;;;;;;25.33;12.60;;;9.50;99.90;;;;;;5057912;28;20032;-80
2023/10/21 04:12:44;;;;;;;23.00;11.68;;;10.10;99.90;;;;;;5042483;28;20466;-80
2023/10/21 04:15:11;;;;;;;22.50;12.52;;;9.70;99.90;;;;;;5053428;28;20402;-80
2023/10/21 04:17:39;;;;;;;26.10;12.43;;;9.50;99.90;;;;;;5054152;28;20039;-80
2023/10/21 04:20:06;;;;;;;23.00;12.45;;;9.50;99.90;;;;;;5054432;28;20041;-80
2023/10/21 04:22:33;;;;;;;26.83;12.43;;;9.40;99.90;;;;;;5066552;28;20052;-80
2023/10/21 04:25:01;;;;;;;23.63;11.90;;;9.40;99.90;;;;;;5034678;28;20492;-80
2023/10/21 04:27:28;;;;;;;20.30;11.73;;;9.40;99.90;;;;;;5054060;28;20036;-80
2023/10/21 04:29:55;;;;;;;19.55;11.15;;;9.50;99.90;;;;;;5042868;28;20038;-80
2023/10/21 04:32:22;;;;;;;25.42;12.13;;;9.40;99.90;;;;;;5063618;28;20124;-82
2023/10/21 04:34:48;;;;;;;20.95;11.23;;;9.20;99.90;;;;;;5046761;28;20943;-80
2023/10/21 04:37:15;;;;;;;20.35;11.32;;;9.40;99.90;;;;;;5050564;28;20041;-80
2023/10/21 04:39:41;;;;;;;18.10;10.38;;;9.70;99.90;;;;;;5054330;28;20048;-80
2023/10/21 04:42:10;;;;;;;20.08;11.20;;;9.40;99.90;;;;;;5050686;28;20064;-80
2023/10/21 04:44:37;;;;;;;21.45;10.57;;;9.20;99.90;;;;;;5047374;28;20542;-80
2023/10/21 04:47:04;;;;;;;23.52;11.20;;;9.30;99.90;;;;;;5053528;28;20512;-80
2023/10/21 04:49:31;;;;;;;23.13;12.05;;;9.30;99.90;;;;;;5053915;28;20043;-80
2023/10/21 04:51:58;;;;;;;21.42;11.70;;;9.70;99.90;;;;;;5054101;28;20793;-80
2023/10/21 04:54:24;;;;;;;20.95;11.25;;;9.20;99.90;;;;;;5053505;28;20048;-80
2023/10/21 04:56:51;;;;;;;21.25;11.85;;;9.20;99.90;;;;;;5045011;28;20406;-80
2023/10/21 04:59:18;;;;;;;22.85;11.68;;;9.30;99.90;;;;;;5048383;28;20063;-80
2023/10/21 05:01:45;;;;;;;19.92;11.18;;;9.20;99.90;;;;;;5068982;28;20048;-80
2023/10/21 05:04:12;;;;;;;21.83;12.02;;;9.10;99.90;;;;;;5041629;28;20041;-80
2023/10/21 05:06:38;;;;;;;23.15;12.40;;;9.10;99.90;;;;;;5050104;28;20040;-80
2023/10/21 05:09:05;;;;;;;21.30;11.98;;;9.20;99.90;;;;;;5058052;28;20503;-80
2023/10/21 05:11:31;;;;;;;21.73;12.10;;;9.10;99.90;;;;;;5068171;28;20037;-80
2023/10/21 05:13:58;;;;;;;23.77;12.10;;;9.00;99.90;;;;;;5049613;28;20037;-80
2023/10/21 05:16:25;;;;;;;21.58;11.80;;;9.20;99.90;;;;;;5042245;28;20038;-80
2023/10/21 05:18:51;;;;;;;21.38;12.00;;;8.90;99.90;;;;;;5050172;28;20049;-80
2023/10/21 05:21:18;;;;;;;18.23;10.98;;;8.90;99.90;;;;;;5049838;28;20087;-80
2023/10/21 05:23:46;;;;;;;20.50;11.77;;;9.10;99.90;;;;;;5033540;28;20045;-80
2023/10/21 05:26:12;;;;;;;20.48;11.10;;;8.90;99.90;;;;;;5057362;28;20116;-80
2023/10/21 05:28:39;;;;;;;17.83;10.63;;;8.90;99.90;;;;;;5055356;28;20116;-80
2023/10/21 05:31:07;;;;;;;17.38;10.48;;;8.90;99.90;;;;;;5053124;28;20578;-80
2023/10/21 05:33:34;;;;;;;22.27;12.50;;;8.90;99.90;;;;;;5051281;28;20044;-80
2023/10/21 05:36:00;;;;;;;19.50;11.32;;;8.90;99.90;;;;;;5033491;28;20041;-80
2023/10/21 05:38:27;;;;;;;20.35;11.70;;;9.20;99.90;;;;;;5037645;28;20042;-80
2023/10/21 05:40:57;;;;;;;19.80;11.18;;;9.00;99.90;;;;;;5042512;28;20036;-80
2023/10/21 05:43:24;;;;;;;18.85;10.90;;;9.10;99.90;;;;;;5041874;28;20071;-80
2023/10/21 05:45:50;;;;;;;18.08;11.23;;;8.90;99.90;;;;;;5047296;28;20045;-80
2023/10/21 05:48:17;;;;;;;18.33;10.45;;;9.00;99.90;;;;;;5047232;28;20468;-80
2023/10/21 05:50:43;;;;;;;16.80;10.38;;;9.00;99.90;;;;;;5041422;28;20037;-80
2023/10/21 05:53:10;;;;;;;22.92;11.32;;;8.90;99.90;;;;;;5062518;28;20041;-80
2023/10/21 05:55:41;;;;;;;17.45;10.80;;;9.20;99.90;;;;;;5040033;28;20040;-80
2023/10/21 05:58:09;;;;;;;24.73;12.25;;;9.30;99.90;;;;;;5049466;28;20033;-80
2023/10/21 06:00:36;;;;;;;17.70;10.88;;;9.50;99.90;;;;;;5049499;28;20060;-80
2023/10/21 06:03:05;;;;;;;18.23;10.63;;;9.30;99.90;;;;;;5048719;28;20128;-80
2023/10/21 06:05:32;;;;;;;17.38;10.48;;;8.90;99.90;;;;;;5044333;28;20152;-80
2023/10/21 06:07:58;;;;;;;18.75;10.40;;;9.40;99.90;;;;;;5045497;28;20072;-80
2023/10/21 06:10:25;;;;;;;22.60;10.27;;;8.90;99.90;;;;;;5038491;28;20044;-80
2023/10/21 06:12:52;;;;;;;21.27;10.70;;;8.90;99.90;;;;;;5041375;28;20072;-81
2023/10/21 06:15:18;;;;;;;17.98;10.30;;;8.90;99.90;;;;;;5042282;28;20049;-80
2023/10/21 06:17:45;;;;;;;19.15;10.93;;;8.90;99.90;;;;;;5034561;28;20480;-81
2023/10/21 06:20:12;;;;;;;20.80;10.90;;;8.90;99.90;;;;;;5043265;28;20053;-81
2023/10/21 06:22:38;;;;;;;17.55;9.95;;;8.90;99.90;;;;;;5045716;28;20034;-81
2023/10/21 06:25:06;;;;;;;16.25;10.50;;;9.00;99.90;;;;;;5041587;28;20487;-81
2023/10/21 06:27:32;;;;;;;19.70;10.95;;;9.00;99.90;;;;;;5043592;28;20402;-81
2023/10/21 06:30:02;;;;;;;19.00;10.23;;;9.20;99.90;;;;;;5043902;28;20052;-81
2023/10/21 06:32:29;;;;;;;16.75;9.77;;;9.00;99.90;;;;;;5046315;28;20064;-81
2023/10/21 06:34:56;;;;;;;18.80;10.45;;;9.00;99.90;;;;;;5047980;28;20040;-81
2023/10/21 06:37:23;;;;;;;18.83;9.18;;;9.00;99.90;;;;;;5038995;28;20041;-81
2023/10/21 06:39:50;;;;;;;16.88;9.55;;;9.70;99.90;;;;;;5047180;28;20060;-81
2023/10/21 06:42:16;;;;;;;20.00;10.05;;;9.60;99.90;;;;;;5046781;28;20086;-80
2023/10/21 06:44:43;;;;;;;18.10;10.13;;;9.10;99.90;;;;;;5050266;28;20038;-81
2023/10/21 06:47:10;;;;;;;17.17;9.63;;;9.10;99.90;;;;;;5060537;28;20450;-80
2023/10/21 06:49:36;;;;;;;17.58;10.75;;;9.10;99.90;;;;;;5049610;28;20487;-81
2023/10/21 06:52:03;;;;;;;17.92;10.30;;;9.70;99.90;;;;;;5043096;28;20048;-81
2023/10/21 06:54:30;;;;;;;16.63;10.02;;;9.10;99.90;;;;;;5055858;28;20049;-79
2023/10/21 06:56:57;;;;;;;17.27;10.40;;;9.30;99.90;;;;;;5043096;28;20437;-82
2023/10/21 06:59:24;;;;;;;20.50;10.40;;;9.20;99.90;;;;;;5055590;28;20060;-79
2023/10/21 07:01:50;;;;;;;16.83;10.38;;;9.40;99.90;;;;;;5054128;28;20518;-80
2023/10/21 07:04:18;;;;;;;17.27;9.77;;;9.30;99.90;;;;;;5044379;28;20125;-80
2023/10/21 07:06:47;;;;;;;16.00;9.93;;;9.20;99.90;;;;;;5050054;28;20561;-80
2023/10/21 07:09:13;;;;;;;17.05;9.15;;;9.70;99.90;;;;;;5051899;28;20449;-80
2023/10/21 07:11:40;;;;;;;22.02;10.63;;;10.00;99.90;;;;;;5053498;28;20045;-80
2023/10/21 07:14:07;;;;;;;17.45;10.25;;;10.00;99.90;;;;;;5049145;28;20048;-79
2023/10/21 07:16:33;;;;;;;17.25;9.40;;;9.30;99.90;;;;;;5040429;28;20446;-80
2023/10/21 07:19:00;;;;;;;16.77;10.13;;;9.70;99.90;;;;;;5057244;28;20076;-79
2023/10/21 07:21:27;;;;;;;17.15;9.85;;;9.80;99.90;;;;;;5040171;28;20041;-80
2023/10/21 07:23:53;;;;;;;19.83;9.85;;;9.40;99.90;;;;;;5046611;28;20120;-80
2023/10/21 07:26:22;;;;;;;15.90;9.80;;;9.40;99.90;;;;;;5039344;28;20033;-80
2023/10/21 07:28:49;;;;;;;16.75;10.10;;;9.60;99.90;;;;;;5059631;28;20497;-79
2023/10/21 07:31:16;;;;;;;17.45;9.38;;;10.10;99.90;;;;;;5034888;28;20412;-80
2023/10/21 07:33:43;;;;;;;17.38;9.70;;;10.10;99.90;;;;;;5049699;28;20037;-80
2023/10/21 07:36:09;;;;;;;19.40;9.63;;;9.60;99.90;;;;;;5063841;28;20045;-80
2023/10/21 07:38:36;;;;;;;15.40;9.30;;;9.90;99.90;;;;;;5036688;28;20033;-80
2023/10/21 07:41:13;;;;;;;16.08;8.73;;;9.70;99.90;;;;;;5047416;28;20127;-79
2023/10/21 07:43:40;;;;;;;15.63;9.00;;;9.60;99.90;;;;;;5049154;28;20041;-80
2023/10/21 07:46:07;;;;;;;16.25;8.88;;;9.70;99.90;;;;;;5052349;28;20074;-80
2023/10/21 07:48:33;;;;;;;14.43;8.50;;;9.80;99.90;;;;;;5044290;28;20045;-79
2023/10/21 07:51:00;;;;;;;16.88;9.35;;;9.90;99.90;;;;;;5046432;28;20049;-79
2023/10/21 07:53:27;;;;;;;17.65;9.00;;;9.90;99.90;;;;;;5037393;28;20048;-80
2023/10/21 07:55:53;;;;;;;19.50;10.57;;;10.30;99.90;;;;;;5042653;28;20044;-80
2023/10/21 07:58:20;;;;;;;16.65;9.00;;;10.00;99.90;;;;;;5044569;28;20516;-79
2023/10/21 08:00:47;;;;;;;13.48;8.63;;;10.30;99.90;;;;;;5050697;28;20522;-80
2023/10/21 08:03:14;;;;;;;17.65;9.07;;;10.40;99.90;;;;;;5042294;28;20050;-79
2023/10/21 08:05:42;;;;;;;16.95;9.68;;;10.10;99.90;;;;;;5050705;28;20507;-79
2023/10/21 08:08:10;;;;;;;16.10;10.15;;;10.20;99.90;;;;;;5040403;28;20029;-79
2023/10/21 08:10:37;;;;;;;17.38;9.32;;;10.20;99.90;;;;;;5071053;28;20040;-80
2023/10/21 08:13:03;;;;;;;15.60;9.25;;;10.60;99.90;;;;;;5054410;28;20040;-80
2023/10/21 08:15:31;;;;;;;17.60;9.38;;;10.90;99.90;;;;;;5045900;28;20041;-80
2023/10/21 08:17:58;;;;;;;15.60;8.77;;;10.40;99.90;;;;;;5040145;28;20041;-80
2023/10/21 08:20:26;;;;;;;17.30;9.13;;;10.50;99.90;;;;;;5053850;28;20479;-80
2023/10/21 08:22:53;;;;;;;13.63;9.07;;;10.50;99.90;;;;;;5040662;28;20040;-80
2023/10/21 08:25:20;;;;;;;14.05;9.10;;;10.80;99.90;;;;;;5040955;28;20168;-80
2023/10/21 08:27:47;;;;;;;16.05;9.35;;;10.60;99.90;;;;;;5053967;28;20041;-80
2023/10/21 08:30:14;;;;;;;13.98;8.50;;;10.50;99.90;;;;;;5039709;28;20034;-80
2023/10/21 08:32:41;;;;;;;16.70;9.02;;;10.80;99.90;;;;;;5058606;28;20817;-80
2023/10/21 08:35:08;;;;;;;15.57;8.77;;;10.70;99.90;;;;;;5053624;28;20037;-79
2023/10/21 08:37:37;;;;;;;16.55;8.35;;;10.70;99.90;;;;;;5070052;28;20495;-80
2023/10/21 08:40:08;;;;;;;14.13;8.23;;;10.80;99.90;;;;;;5040520;28;20041;-80
2023/10/21 08:42:35;;;;;;;14.77;8.57;;;10.80;99.90;;;;;;5049085;28;20591;-80
2023/10/21 08:45:06;;;;;;;13.35;8.10;;;11.00;99.90;;;;;;5044993;28;20033;-80
2023/10/21 08:47:34;;;;;;;17.08;8.80;;;10.80;99.90;;;;;;5051141;28;20041;-80
2023/10/21 08:50:03;;;;;;;17.50;9.05;;;11.10;99.90;;;;;;5036429;28;20761;-80
2023/10/21 08:52:33;;;;;;;14.75;8.45;;;11.10;99.90;;;;;;5050059;28;20049;-80
2023/10/21 08:55:01;;;;;;;13.52;8.40;;;11.20;99.90;;;;;;5033814;28;20079;-79
2023/10/21 08:57:29;;;;;;;14.98;8.63;;;11.30;99.90;;;;;;5049989;28;20048;-79
2023/10/21 08:59:57;;;;;;;14.57;8.65;;;11.40;99.90;;;;;;5062157;28;20061;-79
2023/10/21 09:02:25;;;;;;;16.90;8.93;;;11.50;99.90;;;;;;5047743;28;20042;-79
2023/10/21 09:04:51;;;;;;;14.70;8.25;;;11.60;99.90;;;;;;5042993;28;20080;-79
2023/10/21 09:07:19;;;;;;;17.00;9.10;;;11.80;99.90;;;;;;5036712;28;20125;-80
2023/10/21 09:09:46;;;;;;;14.95;8.95;;;12.50;99.90;;;;;;5043199;28;20121;-80
2023/10/21 09:12:17;;;;;;;16.23;9.20;;;12.00;99.90;;;;;;5041401;28;20080;-80
2023/10/21 09:14:58;;;;;;;15.95;8.70;;;12.10;99.90;;;;;;5037851;28;20045;-81
2023/10/21 09:17:36;;;;;;;18.40;9.35;;;12.20;99.90;;;;;;5036820;28;20041;-81
2023/10/21 09:20:11;;;;;;;15.30;8.95;;;12.40;99.90;;;;;;5044363;28;20052;-81
2023/10/21 09:22:38;;;;;;;16.48;9.30;;;12.40;99.90;;;;;;5041174;28;20049;-80
2023/10/21 09:25:18;;;;;;;13.82;8.82;;;12.50;99.90;;;;;;5049619;28;20041;-81
2023/10/21 09:27:53;;;;;;;18.35;9.50;;;12.70;99.90;;;;;;5036049;28;20424;-82
2023/10/21 09:30:28;;;;;;;18.23;9.45;;;12.90;99.90;;;;;;5026908;28;20092;-81
2023/10/21 09:33:07;;;;;;;14.00;8.30;;;13.10;99.90;;;;;;5045047;28;20041;-81
2023/10/21 09:35:36;;;;;;;16.17;8.48;;;13.30;99.90;;;;;;5070148;28;20041;-82
2023/10/21 09:38:18;;;;;;;13.45;8.13;;;13.40;99.90;;;;;;5051922;28;20040;-80
2023/10/21 09:40:45;;;;;;;13.02;7.55;;;13.60;99.90;;;;;;5065423;28;20045;-81
2023/10/21 09:43:13;;;;;;;17.50;8.25;;;13.60;99.90;;;;;;5036932;28;20053;-81
2023/10/21 09:45:47;;;;;;;36.58;18.60;;;13.80;99.90;;;;;;5048328;28;20053;-81
2023/10/21 09:48:14;;;;;;;17.40;10.47;;;13.80;99.90;;;;;;5050949;28;20076;-81
2023/10/21 09:51:06;;;;;;;16.63;8.15;;;13.80;99.90;;;;;;5039668;28;20382;-81
2023/10/21 09:53:38;;;;;;;13.55;7.15;;;14.00;99.90;;;;;;5039396;28;20127;-81
2023/10/21 09:56:07;;;;;;;11.50;6.63;;;14.20;99.90;;;;;;5056171;28;20131;-81
2023/10/21 09:58:35;;;;;;;11.45;6.18;;;14.20;99.90;;;;;;5072221;28;20579;-81
2023/10/21 10:01:02;;;;;;;11.30;5.53;;;14.20;99.90;;;;;;5056484;28;20072;-81
2023/10/21 10:03:34;;;;;;;11.90;5.30;;;14.20;99.90;;;;;;5066887;28;20049;-81
2023/10/21 10:06:05;;;;;;;8.63;4.57;;;14.30;99.90;;;;;;5044570;28;20121;-81
2023/10/21 10:08:33;;;;;;;8.88;4.50;;;14.30;99.90;;;;;;5069397;28;20403;-81
2023/10/21 10:11:07;;;;;;;9.60;4.68;;;14.30;99.90;;;;;;5045970;28;20668;-80
2023/10/21 10:13:37;;;;;;;10.45;4.70;;;14.40;99.90;;;;;;5036708;28;20450;-81
2023/10/21 10:16:23;;;;;;;13.02;4.70;;;14.40;99.90;;;;;;5046004;28;20037;-80
2023/10/21 10:18:51;;;;;;;8.85;4.22;;;14.50;99.90;;;;;;5053304;28;20530;-81
2023/10/21 10:21:18;;;;;;;11.13;4.00;;;14.60;99.90;;;;;;5033504;28;20562;-81
2023/10/21 10:23:55;;;;;;;10.05;3.53;;;14.60;99.90;;;;;;5033442;28;20393;-81
2023/10/21 10:26:36;;;;;;;7.72;3.58;;;14.60;99.90;;;;;;5065361;28;20649;-80
2023/10/21 10:29:25;;;;;;;8.13;3.40;;;14.50;99.90;;;;;;5051435;28;20567;-81
2023/10/21 10:32:16;;;;;;;9.30;3.60;;;14.50;99.90;;;;;;5046995;28;20049;-81
2023/10/21 10:34:53;;;;;;;10.13;3.55;;;14.50;99.90;;;;;;5055888;28;20056;-81
2023/10/21 10:37:30;;;;;;;5.82;3.40;;;14.50;99.90;;;;;;5033552;28;20042;-81
2023/10/21 10:39:57;;;;;;;11.15;3.25;;;14.40;99.90;;;;;;5042066;28;20049;-81
2023/10/21 10:42:31;;;;;;;7.03;3.05;;;14.50;99.90;;;;;;5036209;28;20087;-81
2023/10/21 10:44:57;;;;;;;10.18;3.00;;;14.30;99.90;;;;;;5040306;28;20133;-81
2023/10/21 10:47:28;;;;;;;6.55;3.80;;;14.30;99.90;;;;;;5044563;28;20395;-81
2023/10/21 10:49:56;;;;;;;6.38;2.90;;;14.20;99.90;;;;;;5049792;28;20087;-81
2023/10/21 10:52:27;;;;;;;7.03;2.08;;;14.20;99.90;;;;;;5042389;28;20475;-81
2023/10/21 10:54:55;;;;;;;3.40;1.45;;;14.10;99.90;;;;;;5060751;28;20048;-80
2023/10/21 10:57:22;;;;;;;5.40;1.60;;;14.10;99.90;;;;;;5068955;28;20399;-80
2023/10/21 10:59:52;;;;;;;5.20;2.13;;;14.00;99.90;;;;;;5035981;28;20054;-81
2023/10/21 11:02:20;;;;;;;3.05;1.30;;;13.90;99.90;;;;;;5041762;28;20046;-81
2023/10/21 11:04:48;;;;;;;3.92;1.40;;;13.90;99.90;;;;;;5041720;28;20033;-80
2023/10/21 11:07:16;;;;;;;4.10;1.40;;;13.90;99.90;;;;;;5038384;28;20038;-81
2023/10/21 11:09:43;;;;;;;3.38;1.10;;;14.00;99.90;;;;;;5043511;28;20173;-81
2023/10/21 11:12:10;;;;;;;1.88;1.10;;;14.10;99.90;;;;;;5060548;28;20131;-81
2023/10/21 11:14:37;;;;;;;4.63;1.60;;;14.20;99.90;;;;;;5046166;28;20514;-81
2023/10/21 11:17:04;;;;;;;8.75;1.40;;;14.30;99.90;;;;;;5040219;28;20044;-81
2023/10/21 11:19:31;;;;;;;4.55;1.48;;;14.30;99.90;;;;;;5040910;28;20042;-81
2023/10/21 11:21:58;;;;;;;4.45;1.30;;;14.30;99.90;;;;;;5042899;28;20111;-81
2023/10/21 11:24:26;;;;;;;5.25;1.60;;;14.30;99.90;;;;;;5038151;28;20038;-81
2023/10/21 11:26:53;;;;;;;2.80;1.00;;;14.20;99.90;;;;;;5048260;28;20048;-81
2023/10/21 11:29:20;;;;;;;2.15;1.10;;;14.20;99.90;;;;;;5048464;28;20464;-81
2023/10/21 11:31:47;;;;;;;3.10;1.70;;;14.20;99.90;;;;;;5043769;28;20381;-81
2023/10/21 11:34:16;;;;;;;3.72;1.60;;;14.30;99.90;;;;;;5051870;28;20037;-81
2023/10/21 11:36:44;;;;;;;2.38;1.20;;;14.40;99.90;;;;;;5038980;28;20037;-81
2023/10/21 11:39:14;;;;;;;3.72;1.10;;;14.30;99.90;;;;;;5049146;28;20045;-81
2023/10/21 11:41:52;;;;;;;4.82;1.40;;;14.30;99.90;;;;;;5034991;28;20048;-81
2023/10/21 11:44:27;;;;;;;5.35;2.13;;;14.30;99.90;;;;;;5050384;28;20043;-81
2023/10/21 11:47:04;;;;;;;3.70;2.20;;;14.40;99.90;;;;;;5046773;28;20044;-81
2023/10/21 11:49:39;;;;;;;9.02;1.60;;;14.50;99.90;;;;;;5047915;28;20046;-80
2023/10/21 11:52:09;;;;;;;3.20;1.60;;;14.60;99.90;;;;;;5041927;28;20045;-80
2023/10/21 11:54:40;;;;;;;3.20;1.33;;;14.70;99.90;;;;;;5052733;28;20038;-81
2023/10/21 12:08:12;;;;;;;1.58;0.82;;;14.80;99.90;;;;;;5059800;28;20096;-81
2023/10/21 12:23:50;;;;;;;1.65;1.05;;;14.50;99.90;;;;;;5031486;28;20062;-80
2023/10/21 12:26:40;;;;;;;2.67;0.90;;;14.40;99.90;;;;;;5040399;28;20083;-80
2023/10/21 12:39:37;;;;;;;2.88;1.13;;;14.10;99.90;;;;;;5066742;28;20132;-80
2023/10/21 12:44:52;;;;;;;2.47;1.30;;;14.00;99.90;;;;;;5052926;28;20073;-80
2023/10/21 12:47:19;;;;;;;3.58;1.00;;;14.00;99.90;;;;;;5033656;28;20039;-80
2023/10/21 12:49:48;;;;;;;4.32;1.60;;;14.10;99.90;;;;;;5040539;28;20121;-80
2023/10/21 12:52:16;;;;;;;3.33;1.42;;;14.10;99.90;;;;;;5046394;28;20579;-80
2023/10/21 12:54:44;;;;;;;2.03;0.90;;;14.20;99.90;;;;;;5030456;28;20046;-81
2023/10/21 12:57:16;;;;;;;2.13;0.80;;;14.20;99.90;;;;;;5047481;28;20041;-81
2023/10/21 12:59:43;;;;;;;2.83;1.17;;;14.10;99.90;;;;;;5048846;28;20108;-80
2023/10/21 13:02:10;;;;;;;1.60;0.80;;;14.20;99.90;;;;;;5049007;28;20053;-81
2023/10/21 13:04:38;;;;;;;4.00;1.30;;;14.30;99.90;;;;;;5040704;28;20064;-81
2023/10/21 13:07:05;;;;;;;6.70;1.50;;;14.40;99.90;;;;;;5068064;28;20052;-81
2023/10/21 13:09:32;;;;;;;2.70;0.90;;;14.50;99.90;;;;;;5066339;28;20045;-81
2023/10/21 13:11:58;;;;;;;2.58;0.80;;;14.50;99.90;;;;;;5051711;28;20060;-81
2023/10/21 13:14:27;;;;;;;2.75;1.10;;;14.40;99.90;;;;;;5053794;28;20045;-81
2023/10/21 13:16:54;;;;;;;2.38;0.73;;;14.40;99.90;;;;;;5040171;28;20518;-80
2023/10/21 13:19:22;;;;;;;2.53;0.90;;;14.50;99.90;;;;;;5043265;28;20045;-81
2023/10/21 13:21:48;;;;;;;4.25;0.98;;;14.40;99.90;;;;;;5041525;28;20045;-81